createdAt,value
2023-03-26T00:00:57.202Z,10.54
2023-03-26T00:04:06.675Z,10.61
2023-03-26T00:07:10.437Z,10.59
2023-03-26T00:10:20.642Z,10.60
2023-03-26T00:13:23.368Z,10.58
2023-03-26T00:16:28.726Z,10.61
2023-03-26T00:19:33.919Z,10.62
2023-03-26T00:22:36.594Z,10.64
2023-03-26T00:25:41.367Z,10.63
2023-03-26T00:28:44.825Z,10.59
2023-03-26T00:31:47.490Z,10.52
2023-03-26T00:34:52.455Z,10.51
2023-03-26T00:37:55.155Z,10.47
2023-03-26T00:41:05.931Z,10.41
2023-03-26T00:44:08.733Z,10.39
2023-03-26T00:47:11.415Z,10.36
2023-03-26T00:50:16.420Z,10.29
2023-03-26T00:53:20.002Z,10.22
2023-03-26T00:56:22.957Z,10.10
2023-03-26T00:59:30.205Z,9.95
2023-03-26T01:02:33.540Z,9.81
2023-03-26T01:05:48.819Z,9.63
2023-03-26T01:08:54.597Z,9.53
2023-03-26T01:11:57.653Z,9.43
2023-03-26T01:15:03.989Z,9.27
2023-03-26T01:18:09.923Z,9.22
2023-03-26T01:21:14.516Z,9.12
2023-03-26T01:24:18.786Z,9.05
2023-03-26T01:27:28.857Z,8.98
2023-03-26T01:30:38.545Z,8.92
2023-03-26T01:33:48.582Z,8.87
2023-03-26T01:36:57.345Z,8.80
2023-03-26T01:40:06.983Z,8.78
2023-03-26T01:43:13.385Z,8.75
2023-03-26T01:46:17.555Z,8.78
2023-03-26T01:49:21.275Z,8.78
2023-03-26T01:52:26.321Z,8.71
2023-03-26T01:55:43.535Z,8.77
2023-03-26T01:58:59.704Z,8.73
2023-03-26T02:02:11.358Z,8.71
2023-03-26T02:05:18.744Z,8.69
2023-03-26T02:08:25.095Z,8.67
2023-03-26T02:11:35.436Z,8.68
2023-03-26T02:14:40.896Z,8.65
2023-03-26T02:17:43.683Z,8.63
2023-03-26T02:20:46.449Z,8.65
2023-03-26T02:23:50.917Z,8.66
2023-03-26T02:26:55.105Z,8.71
2023-03-26T02:29:57.771Z,8.78
2023-03-26T02:33:00.529Z,8.83
2023-03-26T02:36:03.285Z,8.92
2023-03-26T02:39:06.026Z,8.94
2023-03-26T02:42:10.066Z,9.01
2023-03-26T02:45:12.777Z,9.11
2023-03-26T02:48:16.097Z,9.18
2023-03-26T02:51:19.533Z,9.28
2023-03-26T02:54:22.256Z,9.39
2023-03-26T02:57:26.637Z,9.41
2023-03-26T03:00:29.591Z,9.40
2023-03-26T03:03:32.345Z,9.39
2023-03-26T03:06:35.097Z,9.43
2023-03-26T03:09:38.012Z,9.37
2023-03-26T03:12:42.116Z,9.31
2023-03-26T03:15:44.823Z,9.17
2023-03-26T03:18:54.245Z,9.09
2023-03-26T03:21:57.509Z,8.98
2023-03-26T03:25:00.373Z,8.93
2023-03-26T03:28:05.246Z,8.85
2023-03-26T03:31:09.137Z,8.79
2023-03-26T03:34:11.920Z,8.79
2023-03-26T03:37:14.624Z,8.76
2023-03-26T03:40:17.810Z,8.74
2023-03-26T03:43:21.830Z,8.68
2023-03-26T03:46:24.558Z,8.67
2023-03-26T03:49:27.314Z,8.64
2023-03-26T03:52:30.038Z,8.60
2023-03-26T03:55:32.754Z,8.59
2023-03-26T03:58:37.554Z,8.60
2023-03-26T04:01:43.582Z,8.60
2023-03-26T04:04:46.402Z,8.64
2023-03-26T04:07:50.253Z,8.85
2023-03-26T04:10:53.126Z,8.85
2023-03-26T04:13:57.206Z,8.90
2023-03-26T04:16:59.921Z,8.96
2023-03-26T04:20:07.014Z,9.05
2023-03-26T04:23:14.334Z,9.03
2023-03-26T04:26:19.770Z,8.98
2023-03-26T04:29:27.753Z,8.95
2023-03-26T04:32:34.287Z,8.92
2023-03-26T04:35:37.149Z,9.00
2023-03-26T04:38:43.541Z,9.01
2023-03-26T04:41:46.986Z,8.96
2023-03-26T04:44:52.373Z,9.01
2023-03-26T04:47:55.636Z,9.00
2023-03-26T04:50:58.651Z,8.95
2023-03-26T04:54:03.490Z,8.91
2023-03-26T04:57:12.031Z,8.86
2023-03-26T05:00:19.642Z,8.84
2023-03-26T05:03:22.638Z,8.72
2023-03-26T05:06:27.918Z,8.75
2023-03-26T05:09:30.678Z,8.80
2023-03-26T05:12:33.378Z,8.75
2023-03-26T05:15:37.677Z,8.75
2023-03-26T05:18:43.266Z,8.77
2023-03-26T05:21:46.040Z,8.89
2023-03-26T05:24:48.765Z,8.98
2023-03-26T05:27:51.816Z,8.96
2023-03-26T05:30:56.256Z,8.94
2023-03-26T05:34:03.316Z,9.06
2023-03-26T05:37:06.860Z,8.99
2023-03-26T05:40:12.252Z,8.93
2023-03-26T05:43:14.989Z,8.85
2023-03-26T05:46:20.401Z,8.85
2023-03-26T05:49:23.190Z,8.94
2023-03-26T05:52:26.011Z,8.97
2023-03-26T05:55:28.911Z,9.00
2023-03-26T05:58:34.146Z,9.02
2023-03-26T06:01:38.688Z,8.98
2023-03-26T06:04:42.583Z,9.05
2023-03-26T06:07:45.377Z,9.03
2023-03-26T06:10:48.591Z,9.14
2023-03-26T06:13:51.702Z,9.15
2023-03-26T06:16:55.855Z,9.18
2023-03-26T06:19:58.678Z,9.23
2023-03-26T06:23:02.017Z,9.20
2023-03-26T06:26:04.937Z,9.26
2023-03-26T06:29:07.717Z,9.37
2023-03-26T06:32:19.536Z,9.31
2023-03-26T06:35:22.991Z,9.33
2023-03-26T06:38:25.966Z,9.29
2023-03-26T06:41:29.806Z,9.27
2023-03-26T06:44:32.508Z,9.26
2023-03-26T06:47:36.698Z,9.37
2023-03-26T06:50:39.445Z,9.33
2023-03-26T06:53:44.347Z,9.33
2023-03-26T06:56:47.036Z,9.36
2023-03-26T06:59:49.853Z,9.34
2023-03-26T07:02:56.907Z,9.33
2023-03-26T07:06:03.128Z,9.25
2023-03-26T07:09:05.828Z,9.38
2023-03-26T07:12:08.839Z,9.44
2023-03-26T07:15:12.097Z,9.47
2023-03-26T07:18:16.170Z,9.45
2023-03-26T07:21:19.872Z,9.38
2023-03-26T07:24:23.298Z,9.31
2023-03-26T07:27:38.553Z,9.25
2023-03-26T07:30:51.873Z,9.22
2023-03-26T07:34:04.052Z,9.01
2023-03-26T07:37:15.564Z,9.06
2023-03-26T07:40:29.820Z,9.13
2023-03-26T07:43:51.616Z,9.04
2023-03-26T07:46:55.171Z,9.00
2023-03-26T07:49:59.877Z,9.05
2023-03-26T07:53:02.980Z,8.94
2023-03-26T07:56:11.430Z,8.87
2023-03-26T07:59:25.783Z,8.74
2023-03-26T08:02:48.403Z,8.71
2023-03-26T08:06:00.398Z,8.76
2023-03-26T08:09:11.995Z,8.82
2023-03-26T08:12:37.285Z,8.91
2023-03-26T08:15:48.225Z,9.02
2023-03-26T08:18:57.601Z,9.22
2023-03-26T08:22:09.938Z,9.47
2023-03-26T08:25:29.738Z,9.56
2023-03-26T08:28:43.093Z,9.79
2023-03-26T08:31:49.046Z,9.70
2023-03-26T08:34:52.695Z,9.66
2023-03-26T08:37:56.855Z,9.86
2023-03-26T08:41:34.814Z,9.68
2023-03-26T08:45:14.885Z,9.65
2023-03-26T08:48:49.986Z,9.65
2023-03-26T08:52:40.489Z,9.54
2023-03-26T08:55:53.522Z,9.57
2023-03-26T08:59:21.796Z,9.65
2023-03-26T09:02:47.150Z,9.73
2023-03-26T09:06:25.297Z,9.82
2023-03-26T09:09:50.229Z,9.91
2023-03-26T09:13:22.701Z,10.00
2023-03-26T09:17:02.674Z,10.09
2023-03-26T09:20:48.464Z,10.18
2023-03-26T09:24:27.747Z,10.26
2023-03-26T09:27:39.348Z,10.42
2023-03-26T09:31:15.727Z,10.52
2023-03-26T09:34:30.210Z,10.66
2023-03-26T09:37:56.075Z,10.85
2023-03-26T09:41:09.830Z,11.12
2023-03-26T09:44:36.650Z,11.30
2023-03-26T09:47:59.312Z,11.37
2023-03-26T09:51:15.659Z,11.43
2023-03-26T09:54:44.244Z,11.37
2023-03-26T09:58:12.452Z,11.17
2023-03-26T10:01:25.225Z,11.12
2023-03-26T10:04:55.830Z,11.17
2023-03-26T10:08:12.698Z,11.46
2023-03-26T10:11:23.623Z,11.81
2023-03-26T10:14:33.606Z,12.08
2023-03-26T10:17:47.790Z,12.20
2023-03-26T10:20:58.755Z,12.29
2023-03-26T10:24:12.709Z,12.30
2023-03-26T10:27:36.042Z,12.36
2023-03-26T10:30:59.066Z,12.40
2023-03-26T10:34:28.618Z,12.55
2023-03-26T10:37:48.556Z,12.89
2023-03-26T10:41:04.604Z,13.12
2023-03-26T10:44:34.916Z,13.22
2023-03-26T10:48:05.040Z,13.34
2023-03-26T10:51:44.748Z,13.45
2023-03-26T10:54:56.361Z,13.55
2023-03-26T10:58:05.507Z,13.63
2023-03-26T11:01:15.867Z,13.96
2023-03-26T11:04:30.440Z,14.46
2023-03-26T11:07:41.744Z,14.93
2023-03-26T11:10:56.977Z,15.00
2023-03-26T11:14:07.178Z,14.98
2023-03-26T11:17:39.548Z,14.85
2023-03-26T11:20:46.654Z,14.73
2023-03-26T11:24:06.103Z,14.65
2023-03-26T11:27:19.956Z,14.65
2023-03-26T11:30:34.128Z,14.65
2023-03-26T11:33:45.614Z,14.83
2023-03-26T11:36:54.057Z,14.86
2023-03-26T11:40:03.813Z,14.87
2023-03-26T11:43:11.900Z,14.65
2023-03-26T11:46:17.335Z,14.39
2023-03-26T11:49:23.161Z,14.19
2023-03-26T11:52:26.881Z,14.22
2023-03-26T11:55:30.640Z,14.55
2023-03-26T11:58:40.178Z,14.73
2023-03-26T12:01:50.570Z,14.80
2023-03-26T12:05:03.986Z,14.70
2023-03-26T12:08:20.193Z,14.54
2023-03-26T12:11:28.186Z,14.49
2023-03-26T12:14:36.458Z,14.67
2023-03-26T12:17:40.219Z,14.88
2023-03-26T12:20:45.021Z,15.11
2023-03-26T12:23:57.258Z,15.19
2023-03-26T12:27:02.309Z,15.23
2023-03-26T12:30:14.107Z,15.38
2023-03-26T12:33:26.174Z,15.49
2023-03-26T12:36:33.468Z,15.52
2023-03-26T12:40:07.910Z,15.39
2023-03-26T12:44:53.909Z,15.05
2023-03-26T12:47:57.193Z,14.67
2023-03-26T12:49:56.171Z,14.41
2023-03-26T12:53:20.176Z,14.23
2023-03-26T12:56:36.902Z,14.03
2023-03-26T12:59:51.522Z,14.04
2023-03-26T13:03:13.026Z,14.09
2023-03-26T13:06:59.515Z,14.26
2023-03-26T13:10:25.780Z,14.60
2023-03-26T13:13:58.397Z,14.98
2023-03-26T13:17:11.175Z,15.31
2023-03-26T13:20:27.187Z,15.69
2023-03-26T13:23:44.231Z,16.02
2023-03-26T13:27:02.223Z,16.30
2023-03-26T13:30:18.040Z,16.28
2023-03-26T13:33:37.534Z,16.21
2023-03-26T13:36:54.182Z,16.54
2023-03-26T13:40:14.298Z,16.81
2023-03-26T13:43:31.771Z,17.14
2023-03-26T13:46:38.403Z,17.32
2023-03-26T13:49:45.554Z,17.36
2023-03-26T13:52:55.217Z,17.26
2023-03-26T13:56:01.012Z,17.03
2023-03-26T13:59:12.815Z,16.61
2023-03-26T14:02:23.711Z,16.34
2023-03-26T14:05:32.655Z,16.34
2023-03-26T14:08:40.622Z,16.07
2023-03-26T14:11:55.242Z,15.76
2023-03-26T14:15:02.882Z,15.64
2023-03-26T14:18:24.002Z,15.43
2023-03-26T14:21:48.672Z,15.78
2023-03-26T14:25:17.183Z,16.15
2023-03-26T14:28:51.373Z,16.21
2023-03-26T14:32:05.306Z,16.17
2023-03-26T14:35:31.626Z,16.02
2023-03-26T14:39:05.508Z,15.88
2023-03-26T14:42:18.914Z,15.85
2023-03-26T14:45:53.637Z,15.90
2023-03-26T14:49:21.390Z,15.91
2023-03-26T14:52:32.641Z,15.91
2023-03-26T14:56:24.789Z,15.86
2023-03-26T15:00:20.074Z,15.94
2023-03-26T15:03:55.504Z,15.90
2023-03-26T15:07:27.535Z,15.80
2023-03-26T15:11:04.099Z,15.68
2023-03-26T15:14:40.215Z,15.72
2023-03-26T15:18:08.914Z,15.80
2023-03-26T15:21:52.229Z,15.84
2023-03-26T15:25:35.607Z,15.82
2023-03-26T15:29:11.971Z,15.78
2023-03-26T15:33:07.591Z,15.61
2023-03-26T15:37:10.688Z,15.38
2023-03-26T15:40:43.038Z,15.29
2023-03-26T15:44:24.207Z,15.18
2023-03-26T15:47:50.622Z,15.06
2023-03-26T15:51:05.074Z,14.93
2023-03-26T15:54:18.163Z,14.70
2023-03-26T15:57:30.568Z,14.50
2023-03-26T16:00:37.052Z,14.44
2023-03-26T16:03:48.336Z,14.40
2023-03-26T16:07:02.942Z,14.34
2023-03-26T16:10:30.726Z,14.22
2023-03-26T16:13:43.361Z,14.18
2023-03-26T16:16:54.857Z,14.10
2023-03-26T16:20:13.851Z,13.93
2023-03-26T16:23:28.736Z,13.83
2023-03-26T16:26:45.955Z,13.68
2023-03-26T16:30:16.079Z,13.58
2023-03-26T16:33:21.314Z,13.47
2023-03-26T16:36:34.566Z,13.38
2023-03-26T16:39:43.687Z,13.16
2023-03-26T16:42:53.031Z,13.05
2023-03-26T16:46:03.205Z,12.88
2023-03-26T16:49:17.016Z,12.73
2023-03-26T16:52:32.008Z,12.61
2023-03-26T16:55:44.225Z,12.56
2023-03-26T16:58:55.210Z,12.45
2023-03-26T17:02:05.029Z,12.45
2023-03-26T17:05:19.197Z,12.41
2023-03-26T17:08:36.407Z,12.37
2023-03-26T17:11:57.144Z,12.33
2023-03-26T17:15:19.199Z,12.28
2023-03-26T17:18:36.455Z,12.30
2023-03-26T17:21:59.946Z,12.28
2023-03-26T17:25:20.200Z,12.25
2023-03-26T17:28:39.160Z,12.26
2023-03-26T17:31:44.590Z,12.21
2023-03-26T17:35:00.728Z,12.12
2023-03-26T17:38:04.276Z,12.21
2023-03-26T17:41:08.623Z,12.15
2023-03-26T17:44:37.936Z,11.84
2023-03-26T17:47:45.229Z,11.56
2023-03-26T17:50:53.416Z,11.45
2023-03-26T17:53:58.209Z,11.46
2023-03-26T17:57:04.816Z,11.52
2023-03-26T18:00:18.321Z,11.24
2023-03-26T18:03:25.083Z,11.27
2023-03-26T18:06:46.700Z,11.31
2023-03-26T18:10:09.390Z,11.35
2023-03-26T18:13:39.408Z,11.28
2023-03-26T18:16:47.212Z,11.27
2023-03-26T18:19:53.324Z,11.21
2023-03-26T18:22:57.455Z,11.09
2023-03-26T18:26:12.089Z,10.94
2023-03-26T18:29:23.812Z,10.81
2023-03-26T18:32:31.160Z,10.79
2023-03-26T18:35:42.344Z,10.75
2023-03-26T18:38:46.757Z,10.79
2023-03-26T18:41:49.828Z,10.74
2023-03-26T18:44:53.181Z,10.66
2023-03-26T18:47:59.495Z,10.62
2023-03-26T18:51:06.252Z,10.54
2023-03-26T18:54:12.628Z,10.53
2023-03-26T18:57:22.510Z,10.56
2023-03-26T19:00:28.534Z,10.62
2023-03-26T19:03:36.423Z,10.66
2023-03-26T19:06:43.236Z,10.67
2023-03-26T19:09:46.351Z,10.63
2023-03-26T19:12:56.319Z,10.56
2023-03-26T19:15:59.855Z,10.57
2023-03-26T19:19:07.378Z,10.58
2023-03-26T19:22:12.410Z,10.60
2023-03-26T19:25:22.622Z,10.60
2023-03-26T19:28:29.384Z,10.62
2023-03-26T19:31:35.911Z,10.62
2023-03-26T19:34:40.992Z,10.66
2023-03-26T19:37:51.235Z,10.68
2023-03-26T19:40:56.024Z,10.69
2023-03-26T19:44:01.371Z,10.71
2023-03-26T19:47:07.417Z,10.69
2023-03-26T19:50:26.026Z,10.67
2023-03-26T19:53:33.028Z,10.69
2023-03-26T19:56:35.834Z,10.73
2023-03-26T19:59:38.616Z,10.75
2023-03-26T20:02:42.296Z,10.72
2023-03-26T20:05:46.598Z,10.73
2023-03-26T20:08:50.554Z,10.75
2023-03-26T20:12:02.099Z,10.74
2023-03-26T20:15:19.533Z,10.66
2023-03-26T20:18:22.581Z,10.63
2023-03-26T20:21:27.443Z,10.61
2023-03-26T20:24:30.990Z,10.62
2023-03-26T20:27:33.784Z,10.61
2023-03-26T20:30:37.984Z,10.62
2023-03-26T20:33:41.325Z,10.62
2023-03-26T20:36:46.158Z,10.64
2023-03-26T20:39:48.913Z,10.62
2023-03-26T20:42:51.598Z,10.62
2023-03-26T20:45:55.527Z,10.61
2023-03-26T20:48:59.606Z,10.62
2023-03-26T20:52:05.021Z,10.60
2023-03-26T20:55:11.356Z,10.58
2023-03-26T20:58:15.600Z,10.51
2023-03-26T21:01:18.414Z,10.55
2023-03-26T21:04:22.326Z,10.55
2023-03-26T21:07:26.309Z,10.55
2023-03-26T21:10:30.955Z,10.49
2023-03-26T21:13:38.320Z,10.49
2023-03-26T21:16:42.133Z,10.51
2023-03-26T21:19:45.818Z,10.52
2023-03-26T21:22:58.216Z,10.44
2023-03-26T21:26:10.349Z,10.43
2023-03-26T21:29:13.438Z,10.40
2023-03-26T21:32:16.738Z,10.38
2023-03-26T21:35:20.379Z,10.33
2023-03-26T21:38:27.410Z,10.27
2023-03-26T21:41:36.034Z,10.25
2023-03-26T21:44:39.900Z,10.22
2023-03-26T21:47:46.322Z,10.20
2023-03-26T21:50:53.464Z,10.16
2023-03-26T21:53:58.303Z,10.14
2023-03-26T21:57:22.599Z,10.06
2023-03-26T22:00:43.169Z,10.07
2023-03-26T22:04:00.083Z,10.08
2023-03-26T22:07:08.955Z,10.01
2023-03-26T22:10:13.456Z,10.09
2023-03-26T22:13:16.376Z,9.82
2023-03-26T22:16:19.113Z,9.78
2023-03-26T22:19:21.835Z,9.70
2023-03-26T22:22:26.724Z,9.60
2023-03-26T22:25:31.047Z,9.57
2023-03-26T22:28:33.858Z,9.58
2023-03-26T22:31:38.925Z,9.52
2023-03-26T22:34:41.957Z,9.55
2023-03-26T22:37:45.091Z,9.46
2023-03-26T22:40:57.094Z,9.51
2023-03-26T22:44:09.285Z,9.56
2023-03-26T22:47:16.978Z,9.49
2023-03-26T22:50:20.364Z,9.50
2023-03-26T22:53:25.038Z,9.47
2023-03-26T22:56:29.100Z,9.51
2023-03-26T22:59:32.273Z,9.49
2023-03-26T23:02:35.009Z,9.44
2023-03-26T23:05:37.879Z,9.46
2023-03-26T23:08:41.232Z,9.54
2023-03-26T23:11:45.258Z,9.83
2023-03-26T23:14:52.226Z,9.23
2023-03-26T23:17:59.476Z,9.17
2023-03-26T23:21:02.233Z,8.99
2023-03-26T23:24:05.693Z,8.92
2023-03-26T23:27:10.802Z,8.88
2023-03-26T23:30:15.068Z,8.85
2023-03-26T23:33:17.749Z,8.79
2023-03-26T23:36:26.462Z,8.75
2023-03-26T23:39:31.021Z,8.89
2023-03-26T23:42:35.490Z,8.71
2023-03-26T23:45:38.402Z,8.54
2023-03-26T23:48:44.339Z,8.58
2023-03-26T23:51:51.224Z,8.58
2023-03-26T23:54:56.258Z,8.55
2023-03-26T23:58:00.258Z,8.63
